createdAt,value
2022-12-01T00:03:33.458Z,-18.45
2022-12-01T00:08:36.176Z,-18.47
2022-12-01T00:13:38.950Z,-18.41
2022-12-01T00:18:41.881Z,-18.45
2022-12-01T00:23:44.741Z,-18.42
2022-12-01T00:28:51.861Z,-18.40
2022-12-01T00:33:55.020Z,-18.42
2022-12-01T00:38:58.096Z,-18.46
2022-12-01T00:44:00.758Z,-18.43
2022-12-01T00:49:03.981Z,-18.43
2022-12-01T00:54:06.739Z,-18.39
2022-12-01T00:59:09.455Z,-18.42
2022-12-01T01:04:12.813Z,-18.38
2022-12-01T01:09:17.983Z,-18.43
2022-12-01T01:14:21.715Z,-18.35
2022-12-01T01:19:24.579Z,-18.33
2022-12-01T01:24:27.084Z,-18.32
2022-12-01T01:29:29.791Z,-18.29
2022-12-01T01:34:32.620Z,-18.38
2022-12-01T01:39:35.345Z,-18.27
2022-12-01T01:44:50.517Z,-18.54
2022-12-01T01:49:54.513Z,-18.25
2022-12-01T01:54:57.325Z,-18.51
2022-12-01T02:00:07.921Z,-18.25
2022-12-01T02:05:23.383Z,-18.19
2022-12-01T02:10:43.735Z,-18.19
2022-12-01T02:15:58.143Z,-18.23
2022-12-01T02:21:16.928Z,-18.15
2022-12-01T02:26:44.141Z,-18.16
2022-12-01T02:31:57.727Z,-18.13
2022-12-01T02:37:11.456Z,-18.17
2022-12-01T02:42:39.463Z,-18.14
2022-12-01T02:47:42.612Z,-18.06
2022-12-01T02:52:46.042Z,-18.00
2022-12-01T02:57:48.691Z,-17.89
2022-12-01T03:02:57.094Z,-17.76
2022-12-01T03:08:20.315Z,-17.82
2022-12-01T03:13:50.115Z,-17.71
2022-12-01T03:19:00.623Z,-17.74
2022-12-01T03:24:09.352Z,-17.79
2022-12-01T03:29:17.042Z,-17.80
2022-12-01T03:34:43.247Z,-17.52
2022-12-01T03:39:47.275Z,-17.46
2022-12-01T03:44:53.868Z,-17.41
2022-12-01T03:49:57.104Z,-17.31
2022-12-01T03:55:14.952Z,-17.25
2022-12-01T04:00:17.879Z,-17.05
2022-12-01T04:05:25.164Z,-16.91
2022-12-01T04:10:28.217Z,-16.78
2022-12-01T04:15:31.083Z,-16.62
2022-12-01T04:20:33.847Z,-16.70
2022-12-01T04:25:36.537Z,-16.55
2022-12-01T04:30:39.218Z,-16.49
2022-12-01T04:35:41.828Z,-16.48
2022-12-01T04:40:44.453Z,-16.45
2022-12-01T04:45:47.130Z,-16.26
2022-12-01T04:50:50.168Z,-16.30
2022-12-01T04:55:52.883Z,-16.26
2022-12-01T05:00:55.596Z,-16.27
2022-12-01T05:06:06.178Z,-16.26
2022-12-01T05:11:10.551Z,-16.12
2022-12-01T05:16:19.253Z,-16.11
2022-12-01T05:21:21.994Z,-16.09
2022-12-01T05:26:24.629Z,-16.09
2022-12-01T05:31:27.450Z,-16.01
2022-12-01T05:36:30.570Z,-15.90
2022-12-01T05:41:33.222Z,-15.89
2022-12-01T05:46:35.922Z,-15.76
2022-12-01T05:51:38.631Z,-15.80
2022-12-01T05:56:41.450Z,-15.75
2022-12-01T06:01:44.182Z,-15.56
2022-12-01T06:06:47.024Z,-15.43
2022-12-01T06:11:52.523Z,-15.26
2022-12-01T06:16:55.495Z,-15.17
2022-12-01T06:21:58.596Z,-15.29
2022-12-01T06:27:01.296Z,-15.24
2022-12-01T06:32:04.576Z,-15.17
2022-12-01T06:37:07.316Z,-15.19
2022-12-01T06:42:10.284Z,-15.08
2022-12-01T06:47:12.923Z,-15.01
2022-12-01T06:52:15.556Z,-15.00
2022-12-01T06:57:18.337Z,-15.12
2022-12-01T07:02:21.447Z,-15.13
2022-12-01T07:07:24.629Z,-15.14
2022-12-01T07:12:30.937Z,-15.10
2022-12-01T07:17:34.216Z,-14.93
2022-12-01T07:22:36.871Z,-14.83
2022-12-01T07:27:39.513Z,-14.80
2022-12-01T07:32:42.349Z,-14.92
2022-12-01T07:37:45.019Z,-14.94
2022-12-01T07:42:47.773Z,-14.99
2022-12-01T07:47:54.378Z,-14.90
2022-12-01T07:52:57.002Z,-14.82
2022-12-01T07:58:01.175Z,-14.77
2022-12-01T08:03:03.930Z,-14.83
2022-12-01T08:08:06.930Z,-14.94
2022-12-01T08:13:12.896Z,-14.92
2022-12-01T08:18:19.753Z,-14.91
2022-12-01T08:23:22.443Z,-14.91
2022-12-01T08:28:25.443Z,-14.99
2022-12-01T08:33:29.456Z,-14.98
2022-12-01T08:38:32.506Z,-14.96
2022-12-01T08:49:04.696Z,-15.03
2022-12-01T08:54:07.680Z,-15.17
2022-12-01T08:59:10.554Z,-15.18
2022-12-01T09:04:13.211Z,-15.29
2022-12-01T09:09:19.790Z,-15.26
2022-12-01T09:14:23.316Z,-15.39
2022-12-01T09:19:26.015Z,-15.50
2022-12-01T09:24:28.792Z,-15.55
2022-12-01T09:29:32.107Z,-15.56
2022-12-01T09:34:34.782Z,-15.54
2022-12-01T09:39:37.487Z,-15.64
2022-12-01T09:44:53.268Z,-15.51
2022-12-01T09:50:12.703Z,-15.42
2022-12-01T09:55:19.420Z,-15.55
2022-12-01T10:00:25.108Z,-15.52
2022-12-01T10:05:56.563Z,-15.83
2022-12-01T10:11:13.550Z,-15.59
2022-12-01T10:16:18.839Z,-15.66
2022-12-01T10:21:59.079Z,-15.66
2022-12-01T10:27:22.178Z,-15.69
2022-12-01T10:32:33.081Z,-15.74
2022-12-01T10:37:35.860Z,-15.73
2022-12-01T10:42:43.185Z,-15.63
2022-12-01T10:48:10.509Z,-15.60
2022-12-01T10:53:32.366Z,-15.56
2022-12-01T10:58:43.350Z,-15.54
2022-12-01T11:03:50.888Z,-15.58
2022-12-01T11:09:06.383Z,-15.57
2022-12-01T11:14:21.301Z,-15.56
2022-12-01T11:19:35.947Z,-15.59
2022-12-01T11:24:44.437Z,-15.62
2022-12-01T11:29:50.406Z,-15.56
2022-12-01T11:35:04.273Z,-15.56
2022-12-01T11:40:29.327Z,-15.55
2022-12-01T11:45:35.300Z,-15.55
2022-12-01T11:50:40.250Z,-15.54
2022-12-01T11:55:42.910Z,-15.59
2022-12-01T12:00:53.069Z,-15.58
2022-12-01T12:06:38.461Z,-15.58
2022-12-01T12:11:38.282Z,-15.59
2022-12-01T12:16:53.199Z,-15.57
2022-12-01T12:22:06.404Z,-15.60
2022-12-01T12:27:31.058Z,-15.60
2022-12-01T12:32:54.855Z,-15.60
2022-12-01T12:38:29.286Z,-15.59
2022-12-01T12:43:57.917Z,-15.65
2022-12-01T12:49:25.919Z,-15.69
2022-12-01T12:54:51.344Z,-15.75
2022-12-01T13:00:15.845Z,-15.84
2022-12-01T13:05:33.248Z,-16.00
2022-12-01T13:10:45.316Z,-16.12
2022-12-01T13:15:49.737Z,-16.22
2022-12-01T13:20:52.992Z,-16.44
2022-12-01T13:25:56.670Z,-16.37
2022-12-01T13:31:06.302Z,-16.18
2022-12-01T13:36:45.199Z,-15.91
2022-12-01T13:41:40.177Z,-15.76
2022-12-01T13:46:43.091Z,-15.70
2022-12-01T13:52:19.138Z,-15.66
2022-12-01T13:57:27.787Z,-15.62
2022-12-01T14:02:32.809Z,-15.60
2022-12-01T14:07:38.252Z,-15.57
2022-12-01T14:12:45.439Z,-15.57
2022-12-01T14:17:48.849Z,-15.52
2022-12-01T14:23:05.083Z,-15.47
2022-12-01T14:28:17.196Z,-15.42
2022-12-01T14:34:02.518Z,-15.42
2022-12-01T14:39:14.132Z,-15.42
2022-12-01T14:44:37.012Z,-15.42
2022-12-01T14:50:12.166Z,-15.40
2022-12-01T14:55:21.765Z,-15.37
2022-12-01T15:00:25.542Z,-15.41
2022-12-01T15:05:30.093Z,-15.44
2022-12-01T15:10:37.285Z,-15.69
2022-12-01T15:15:51.114Z,-15.43
2022-12-01T15:20:59.357Z,-15.42
2022-12-01T15:26:02.427Z,-15.41
2022-12-01T15:31:10.287Z,-15.49
2022-12-01T15:36:13.431Z,-15.46
2022-12-01T15:41:28.992Z,-15.58
2022-12-01T15:46:34.822Z,-15.44
2022-12-01T15:51:37.652Z,-15.49
2022-12-01T15:56:41.416Z,-15.46
2022-12-01T16:01:45.676Z,-15.48
2022-12-01T16:07:07.702Z,-15.45
2022-12-01T16:12:12.992Z,-15.44
2022-12-01T16:17:17.525Z,-15.47
2022-12-01T16:22:22.271Z,-15.45
2022-12-01T16:27:27.210Z,-15.43
2022-12-01T16:32:36.898Z,-15.41
2022-12-01T16:37:40.290Z,-15.39
2022-12-01T16:42:43.107Z,-15.46
2022-12-01T16:47:47.829Z,-15.42
2022-12-01T16:52:50.448Z,-15.55
2022-12-01T16:57:55.842Z,-15.54
2022-12-01T17:02:58.963Z,-15.68
2022-12-01T17:08:01.784Z,-15.60
2022-12-01T17:13:04.529Z,-15.65
2022-12-01T17:18:07.355Z,-15.66
2022-12-01T17:23:10.152Z,-15.59
2022-12-01T17:28:12.861Z,-15.67
2022-12-01T17:33:15.516Z,-15.78
2022-12-01T17:38:18.192Z,-15.81
2022-12-01T17:43:21.288Z,-16.02
2022-12-01T17:48:23.927Z,-15.82
2022-12-01T17:53:27.165Z,-15.82
2022-12-01T17:58:31.005Z,-15.81
2022-12-01T18:03:33.747Z,-15.79
2022-12-01T18:08:37.724Z,-15.80
2022-12-01T18:13:42.576Z,-15.80
2022-12-01T18:18:45.518Z,-15.87
2022-12-01T18:23:55.352Z,-15.86
2022-12-01T18:29:09.048Z,-15.83
2022-12-01T18:34:12.760Z,-15.86
2022-12-01T18:39:16.901Z,-15.90
2022-12-01T18:44:19.567Z,-16.00
2022-12-01T18:49:22.164Z,-15.98
2022-12-01T18:54:24.923Z,-15.98
2022-12-01T18:59:27.738Z,-15.97
2022-12-01T19:04:30.763Z,-16.19
2022-12-01T19:09:33.591Z,-16.12
2022-12-01T19:14:36.482Z,-16.27
2022-12-01T19:19:39.197Z,-16.49
2022-12-01T19:24:44.872Z,-16.78
2022-12-01T19:29:52.596Z,-16.89
2022-12-01T19:34:55.663Z,-16.97
2022-12-01T19:39:58.354Z,-17.06
2022-12-01T19:45:01.645Z,-17.17
2022-12-01T19:50:07.196Z,-17.26
2022-12-01T19:55:11.038Z,-17.42
2022-12-01T20:00:14.005Z,-17.44
2022-12-01T20:05:16.904Z,-17.50
2022-12-01T20:10:20.679Z,-17.69
2022-12-01T20:15:23.337Z,-17.76
2022-12-01T20:20:26.159Z,-17.84
2022-12-01T20:25:28.801Z,-17.99
2022-12-01T20:30:31.529Z,-18.02
2022-12-01T20:35:34.281Z,-18.20
2022-12-01T20:40:37.041Z,-18.23
2022-12-01T20:45:39.725Z,-18.31
2022-12-01T20:50:42.909Z,-18.64
2022-12-01T20:55:45.789Z,-18.44
2022-12-01T21:00:49.145Z,-18.57
2022-12-01T21:05:51.898Z,-18.71
2022-12-01T21:10:54.580Z,-18.78
2022-12-01T21:16:03.450Z,-18.87
2022-12-01T21:21:25.418Z,-18.95
2022-12-01T21:26:28.233Z,-19.09
2022-12-01T21:31:32.482Z,-19.43
2022-12-01T21:36:35.413Z,-19.22
2022-12-01T21:41:38.325Z,-19.47
2022-12-01T21:46:42.720Z,-19.26
2022-12-01T21:51:45.711Z,-19.26
2022-12-01T21:56:54.040Z,-19.29
2022-12-01T22:01:57.837Z,-19.34
2022-12-01T22:07:01.265Z,-19.33
2022-12-01T22:12:13.183Z,-19.40
2022-12-01T22:17:24.554Z,-19.51
2022-12-01T22:22:32.921Z,-19.41
2022-12-01T22:27:44.295Z,-19.38
2022-12-01T22:32:56.292Z,-19.34
2022-12-01T22:38:08.978Z,-19.38
2022-12-01T22:43:28.303Z,-19.46
2022-12-01T22:48:40.276Z,-19.49
2022-12-01T22:53:44.791Z,-19.51
2022-12-01T22:58:47.772Z,-19.50
2022-12-01T23:03:50.644Z,-19.48
2022-12-01T23:08:53.585Z,-19.54
2022-12-01T23:13:56.245Z,-19.53
2022-12-01T23:18:58.743Z,-19.54
2022-12-01T23:24:02.580Z,-19.48
2022-12-01T23:29:05.232Z,-19.51
2022-12-01T23:34:17.064Z,-19.61
2022-12-01T23:39:27.391Z,-19.62
2022-12-01T23:44:41.873Z,-19.72
2022-12-01T23:49:46.191Z,-19.78
2022-12-01T23:54:49.324Z,-19.79
2022-12-01T23:59:55.067Z,-19.90
